sensor_id;sensor_type;location;lat;lon;timestamp;P1;durP1;ratioP1;P2;durP2;ratioP2
76023;SDS011;64719;52.124;6.226;2023-08-30T00:02:26;11.18;;;6.55;;
76023;SDS011;64719;52.124;6.226;2023-08-30T00:04:57;9.63;;;5.72;;
76023;SDS011;64719;52.124;6.226;2023-08-30T00:07:24;8.75;;;6.18;;
76023;SDS011;64719;52.124;6.226;2023-08-30T00:09:51;12.45;;;6.70;;
76023;SDS011;64719;52.124;6.226;2023-08-30T00:12:17;13.10;;;7.30;;
76023;SDS011;64719;52.124;6.226;2023-08-30T00:14:46;12.32;;;7.55;;
76023;SDS011;64719;52.124;6.226;2023-08-30T00:17:12;12.25;;;6.90;;
76023;SDS011;64719;52.124;6.226;2023-08-30T00:19:39;11.73;;;7.20;;
76023;SDS011;64719;52.124;6.226;2023-08-30T00:22:06;10.95;;;7.63;;
76023;SDS011;64719;52.124;6.226;2023-08-30T00:24:33;14.07;;;8.25;;
76023;SDS011;64719;52.124;6.226;2023-08-30T00:27:00;12.65;;;7.22;;
76023;SDS011;64719;52.124;6.226;2023-08-30T00:29:27;13.13;;;8.07;;
76023;SDS011;64719;52.124;6.226;2023-08-30T00:31:55;14.75;;;6.85;;
76023;SDS011;64719;52.124;6.226;2023-08-30T00:34:21;11.43;;;7.63;;
76023;SDS011;64719;52.124;6.226;2023-08-30T00:36:48;11.60;;;7.82;;
76023;SDS011;64719;52.124;6.226;2023-08-30T00:39:15;11.60;;;7.72;;
76023;SDS011;64719;52.124;6.226;2023-08-30T00:41:42;11.15;;;7.70;;
76023;SDS011;64719;52.124;6.226;2023-08-30T00:44:09;14.35;;;8.90;;
76023;SDS011;64719;52.124;6.226;2023-08-30T00:46:36;14.73;;;8.02;;
76023;SDS011;64719;52.124;6.226;2023-08-30T00:49:05;16.55;;;8.15;;
76023;SDS011;64719;52.124;6.226;2023-08-30T00:51:33;11.57;;;7.68;;
76023;SDS011;64719;52.124;6.226;2023-08-30T00:54:00;13.48;;;8.80;;
76023;SDS011;64719;52.124;6.226;2023-08-30T00:56:27;13.98;;;8.85;;
76023;SDS011;64719;52.124;6.226;2023-08-30T00:58:55;15.85;;;9.68;;
76023;SDS011;64719;52.124;6.226;2023-08-30T01:01:22;14.82;;;9.02;;
76023;SDS011;64719;52.124;6.226;2023-08-30T01:03:49;14.95;;;9.77;;
76023;SDS011;64719;52.124;6.226;2023-08-30T01:06:17;17.35;;;9.70;;
76023;SDS011;64719;52.124;6.226;2023-08-30T01:08:44;14.02;;;9.60;;
76023;SDS011;64719;52.124;6.226;2023-08-30T01:11:12;16.88;;;10.52;;
76023;SDS011;64719;52.124;6.226;2023-08-30T01:13:47;15.57;;;9.55;;
76023;SDS011;64719;52.124;6.226;2023-08-30T01:16:19;14.95;;;10.10;;
76023;SDS011;64719;52.124;6.226;2023-08-30T01:18:48;17.55;;;9.35;;
76023;SDS011;64719;52.124;6.226;2023-08-30T01:21:23;16.50;;;10.02;;
76023;SDS011;64719;52.124;6.226;2023-08-30T01:23:59;19.20;;;11.38;;
76023;SDS011;64719;52.124;6.226;2023-08-30T01:26:29;16.15;;;10.43;;
76023;SDS011;64719;52.124;6.226;2023-08-30T01:29:06;14.50;;;9.68;;
76023;SDS011;64719;52.124;6.226;2023-08-30T01:31:37;16.95;;;9.45;;
76023;SDS011;64719;52.124;6.226;2023-08-30T01:34:06;16.58;;;10.57;;
76023;SDS011;64719;52.124;6.226;2023-08-30T01:36:33;14.55;;;9.68;;
76023;SDS011;64719;52.124;6.226;2023-08-30T01:39:00;17.10;;;9.88;;
76023;SDS011;64719;52.124;6.226;2023-08-30T01:41:30;16.00;;;9.63;;
76023;SDS011;64719;52.124;6.226;2023-08-30T01:43:58;15.32;;;9.10;;
76023;SDS011;64719;52.124;6.226;2023-08-30T01:46:30;14.02;;;8.75;;
76023;SDS011;64719;52.124;6.226;2023-08-30T01:48:58;15.25;;;9.18;;
76023;SDS011;64719;52.124;6.226;2023-08-30T01:53:53;15.65;;;10.02;;
76023;SDS011;64719;52.124;6.226;2023-08-30T01:56:21;15.13;;;9.93;;
76023;SDS011;64719;52.124;6.226;2023-08-30T01:58:47;15.40;;;9.43;;
76023;SDS011;64719;52.124;6.226;2023-08-30T02:01:14;15.40;;;9.55;;
76023;SDS011;64719;52.124;6.226;2023-08-30T02:03:44;16.15;;;9.15;;
76023;SDS011;64719;52.124;6.226;2023-08-30T02:06:11;17.27;;;9.50;;
76023;SDS011;64719;52.124;6.226;2023-08-30T02:08:45;15.52;;;9.25;;
76023;SDS011;64719;52.124;6.226;2023-08-30T02:11:22;16.67;;;9.02;;
76023;SDS011;64719;52.124;6.226;2023-08-30T02:13:52;18.70;;;10.35;;
76023;SDS011;64719;52.124;6.226;2023-08-30T02:16:20;15.80;;;9.77;;
76023;SDS011;64719;52.124;6.226;2023-08-30T02:21:17;15.65;;;9.43;;
76023;SDS011;64719;52.124;6.226;2023-08-30T02:23:48;17.42;;;9.38;;
76023;SDS011;64719;52.124;6.226;2023-08-30T02:26:17;15.13;;;9.10;;
76023;SDS011;64719;52.124;6.226;2023-08-30T02:28:44;17.65;;;9.38;;
76023;SDS011;64719;52.124;6.226;2023-08-30T02:31:10;17.05;;;10.10;;
76023;SDS011;64719;52.124;6.226;2023-08-30T02:33:37;14.98;;;9.35;;
76023;SDS011;64719;52.124;6.226;2023-08-30T02:36:05;14.02;;;8.85;;
76023;SDS011;64719;52.124;6.226;2023-08-30T02:38:33;17.52;;;8.65;;
76023;SDS011;64719;52.124;6.226;2023-08-30T02:40:59;14.55;;;8.20;;
76023;SDS011;64719;52.124;6.226;2023-08-30T02:43:26;14.35;;;8.35;;
76023;SDS011;64719;52.124;6.226;2023-08-30T02:45:53;15.55;;;8.65;;
76023;SDS011;64719;52.124;6.226;2023-08-30T02:48:19;14.93;;;8.70;;
76023;SDS011;64719;52.124;6.226;2023-08-30T02:50:46;13.20;;;8.07;;
76023;SDS011;64719;52.124;6.226;2023-08-30T02:53:15;13.95;;;8.52;;
76023;SDS011;64719;52.124;6.226;2023-08-30T02:55:42;13.30;;;7.88;;
76023;SDS011;64719;52.124;6.226;2023-08-30T02:58:08;13.13;;;8.07;;
76023;SDS011;64719;52.124;6.226;2023-08-30T03:00:35;13.77;;;8.43;;
76023;SDS011;64719;52.124;6.226;2023-08-30T03:03:02;14.95;;;7.93;;
76023;SDS011;64719;52.124;6.226;2023-08-30T03:05:28;11.98;;;7.32;;
76023;SDS011;64719;52.124;6.226;2023-08-30T03:07:55;12.18;;;7.40;;
76023;SDS011;64719;52.124;6.226;2023-08-30T03:10:24;13.65;;;8.50;;
76023;SDS011;64719;52.124;6.226;2023-08-30T03:12:51;13.70;;;7.68;;
76023;SDS011;64719;52.124;6.226;2023-08-30T03:15:17;15.38;;;8.48;;
76023;SDS011;64719;52.124;6.226;2023-08-30T03:17:44;11.48;;;7.57;;
76023;SDS011;64719;52.124;6.226;2023-08-30T03:20:11;14.25;;;8.73;;
76023;SDS011;64719;52.124;6.226;2023-08-30T03:22:38;14.48;;;8.02;;
76023;SDS011;64719;52.124;6.226;2023-08-30T03:25:05;14.43;;;8.57;;
76023;SDS011;64719;52.124;6.226;2023-08-30T03:27:35;14.73;;;8.30;;
76023;SDS011;64719;52.124;6.226;2023-08-30T03:30:02;12.25;;;7.72;;
76023;SDS011;64719;52.124;6.226;2023-08-30T03:32:29;15.65;;;8.27;;
76023;SDS011;64719;52.124;6.226;2023-08-30T03:34:57;14.10;;;8.65;;
76023;SDS011;64719;52.124;6.226;2023-08-30T03:37:24;13.32;;;8.82;;
76023;SDS011;64719;52.124;6.226;2023-08-30T03:39:51;18.63;;;10.57;;
76023;SDS011;64719;52.124;6.226;2023-08-30T03:42:18;13.75;;;8.93;;
76023;SDS011;64719;52.124;6.226;2023-08-30T03:44:46;13.93;;;8.40;;
76023;SDS011;64719;52.124;6.226;2023-08-30T03:47:13;13.98;;;8.98;;
76023;SDS011;64719;52.124;6.226;2023-08-30T03:49:40;15.98;;;8.60;;
76023;SDS011;64719;52.124;6.226;2023-08-30T03:52:07;14.82;;;9.40;;
76023;SDS011;64719;52.124;6.226;2023-08-30T03:54:33;15.30;;;10.43;;
76023;SDS011;64719;52.124;6.226;2023-08-30T03:57:00;16.58;;;10.07;;
76023;SDS011;64719;52.124;6.226;2023-08-30T03:59:27;14.25;;;9.00;;
76023;SDS011;64719;52.124;6.226;2023-08-30T04:01:55;20.83;;;10.65;;
76023;SDS011;64719;52.124;6.226;2023-08-30T04:04:22;17.65;;;9.80;;
76023;SDS011;64719;52.124;6.226;2023-08-30T04:06:49;18.20;;;10.25;;
76023;SDS011;64719;52.124;6.226;2023-08-30T04:09:15;13.80;;;8.70;;
76023;SDS011;64719;52.124;6.226;2023-08-30T04:11:43;22.17;;;10.95;;
76023;SDS011;64719;52.124;6.226;2023-08-30T04:14:09;18.77;;;11.48;;
76023;SDS011;64719;52.124;6.226;2023-08-30T04:16:36;18.75;;;10.38;;
76023;SDS011;64719;52.124;6.226;2023-08-30T04:19:04;19.98;;;11.38;;
76023;SDS011;64719;52.124;6.226;2023-08-30T04:21:31;19.38;;;10.85;;
76023;SDS011;64719;52.124;6.226;2023-08-30T04:23:57;19.05;;;11.05;;
76023;SDS011;64719;52.124;6.226;2023-08-30T04:26:24;24.50;;;11.45;;
76023;SDS011;64719;52.124;6.226;2023-08-30T04:28:51;19.60;;;11.73;;
76023;SDS011;64719;52.124;6.226;2023-08-30T04:31:17;21.38;;;11.45;;
76023;SDS011;64719;52.124;6.226;2023-08-30T04:33:44;19.73;;;12.23;;
76023;SDS011;64719;52.124;6.226;2023-08-30T04:36:12;22.15;;;12.75;;
76023;SDS011;64719;52.124;6.226;2023-08-30T04:38:39;22.83;;;12.38;;
76023;SDS011;64719;52.124;6.226;2023-08-30T04:41:06;24.17;;;12.82;;
76023;SDS011;64719;52.124;6.226;2023-08-30T04:43:32;22.70;;;11.65;;
76023;SDS011;64719;52.124;6.226;2023-08-30T04:45:59;22.27;;;12.60;;
76023;SDS011;64719;52.124;6.226;2023-08-30T04:48:26;22.45;;;11.70;;
76023;SDS011;64719;52.124;6.226;2023-08-30T04:50:59;20.90;;;12.00;;
76023;SDS011;64719;52.124;6.226;2023-08-30T04:53:29;23.67;;;12.48;;
76023;SDS011;64719;52.124;6.226;2023-08-30T04:58:22;21.63;;;12.10;;
76023;SDS011;64719;52.124;6.226;2023-08-30T05:00:49;20.60;;;12.10;;
76023;SDS011;64719;52.124;6.226;2023-08-30T05:03:16;26.33;;;13.68;;
76023;SDS011;64719;52.124;6.226;2023-08-30T05:05:44;20.98;;;12.02;;
76023;SDS011;64719;52.124;6.226;2023-08-30T05:08:11;20.77;;;11.63;;
76023;SDS011;64719;52.124;6.226;2023-08-30T05:10:39;23.92;;;12.25;;
76023;SDS011;64719;52.124;6.226;2023-08-30T05:13:08;26.83;;;13.90;;
76023;SDS011;64719;52.124;6.226;2023-08-30T05:15:34;22.17;;;12.82;;
76023;SDS011;64719;52.124;6.226;2023-08-30T05:18:01;27.02;;;13.20;;
76023;SDS011;64719;52.124;6.226;2023-08-30T05:20:28;19.70;;;11.85;;
76023;SDS011;64719;52.124;6.226;2023-08-30T05:22:55;23.70;;;12.82;;
76023;SDS011;64719;52.124;6.226;2023-08-30T05:25:21;23.73;;;12.60;;
76023;SDS011;64719;52.124;6.226;2023-08-30T05:27:49;21.27;;;12.02;;
76023;SDS011;64719;52.124;6.226;2023-08-30T05:30:16;20.10;;;10.68;;
76023;SDS011;64719;52.124;6.226;2023-08-30T05:32:42;20.48;;;10.60;;
76023;SDS011;64719;52.124;6.226;2023-08-30T05:35:09;19.98;;;11.05;;
76023;SDS011;64719;52.124;6.226;2023-08-30T05:37:36;17.20;;;10.63;;
76023;SDS011;64719;52.124;6.226;2023-08-30T05:40:02;19.05;;;10.68;;
76023;SDS011;64719;52.124;6.226;2023-08-30T05:42:30;18.13;;;10.70;;
76023;SDS011;64719;52.124;6.226;2023-08-30T05:44:58;18.27;;;9.90;;
76023;SDS011;64719;52.124;6.226;2023-08-30T05:47:24;15.55;;;9.68;;
76023;SDS011;64719;52.124;6.226;2023-08-30T05:49:51;15.23;;;9.82;;
76023;SDS011;64719;52.124;6.226;2023-08-30T05:52:17;19.95;;;10.52;;
76023;SDS011;64719;52.124;6.226;2023-08-30T05:54:44;16.08;;;9.60;;
76023;SDS011;64719;52.124;6.226;2023-08-30T05:57:10;15.88;;;8.98;;
76023;SDS011;64719;52.124;6.226;2023-08-30T05:59:37;14.80;;;8.60;;
76023;SDS011;64719;52.124;6.226;2023-08-30T06:02:05;13.40;;;7.68;;
76023;SDS011;64719;52.124;6.226;2023-08-30T06:04:32;15.07;;;8.88;;
76023;SDS011;64719;52.124;6.226;2023-08-30T06:06:58;11.88;;;7.75;;
76023;SDS011;64719;52.124;6.226;2023-08-30T06:09:25;13.35;;;9.13;;
76023;SDS011;64719;52.124;6.226;2023-08-30T06:11:52;12.43;;;7.90;;
76023;SDS011;64719;52.124;6.226;2023-08-30T06:14:18;13.75;;;9.13;;
76023;SDS011;64719;52.124;6.226;2023-08-30T06:16:45;12.90;;;8.18;;
76023;SDS011;64719;52.124;6.226;2023-08-30T06:19:13;11.38;;;7.82;;
76023;SDS011;64719;52.124;6.226;2023-08-30T06:21:40;12.63;;;8.43;;
76023;SDS011;64719;52.124;6.226;2023-08-30T06:24:06;12.30;;;7.90;;
76023;SDS011;64719;52.124;6.226;2023-08-30T06:26:33;11.88;;;8.77;;
76023;SDS011;64719;52.124;6.226;2023-08-30T06:29:00;11.15;;;7.60;;
76023;SDS011;64719;52.124;6.226;2023-08-30T06:31:27;10.98;;;8.07;;
76023;SDS011;64719;52.124;6.226;2023-08-30T06:33:54;10.85;;;8.25;;
76023;SDS011;64719;52.124;6.226;2023-08-30T06:36:23;11.82;;;8.65;;
76023;SDS011;64719;52.124;6.226;2023-08-30T06:38:49;12.77;;;8.65;;
76023;SDS011;64719;52.124;6.226;2023-08-30T06:41:16;12.65;;;8.43;;
76023;SDS011;64719;52.124;6.226;2023-08-30T06:43:43;12.85;;;8.73;;
76023;SDS011;64719;52.124;6.226;2023-08-30T06:46:09;12.23;;;8.68;;
76023;SDS011;64719;52.124;6.226;2023-08-30T06:48:36;13.80;;;9.35;;
76023;SDS011;64719;52.124;6.226;2023-08-30T06:51:03;14.93;;;9.40;;
76023;SDS011;64719;52.124;6.226;2023-08-30T06:53:31;14.77;;;8.85;;
76023;SDS011;64719;52.124;6.226;2023-08-30T06:55:58;13.00;;;9.07;;
76023;SDS011;64719;52.124;6.226;2023-08-30T06:58:26;13.80;;;8.73;;
76023;SDS011;64719;52.124;6.226;2023-08-30T07:00:53;15.80;;;9.90;;
76023;SDS011;64719;52.124;6.226;2023-08-30T07:03:20;15.20;;;9.95;;
76023;SDS011;64719;52.124;6.226;2023-08-30T07:05:46;16.80;;;10.63;;
76023;SDS011;64719;52.124;6.226;2023-08-30T07:08:13;15.32;;;10.40;;
76023;SDS011;64719;52.124;6.226;2023-08-30T07:10:42;18.83;;;10.48;;
76023;SDS011;64719;52.124;6.226;2023-08-30T07:13:09;16.15;;;10.35;;
76023;SDS011;64719;52.124;6.226;2023-08-30T07:15:36;16.98;;;10.90;;
76023;SDS011;64719;52.124;6.226;2023-08-30T07:22:58;17.13;;;10.40;;
76023;SDS011;64719;52.124;6.226;2023-08-30T07:25:25;17.70;;;9.82;;
76023;SDS011;64719;52.124;6.226;2023-08-30T07:27:53;15.65;;;9.98;;
76023;SDS011;64719;52.124;6.226;2023-08-30T07:30:19;17.90;;;10.80;;
76023;SDS011;64719;52.124;6.226;2023-08-30T07:32:46;18.90;;;11.38;;
76023;SDS011;64719;52.124;6.226;2023-08-30T07:35:13;17.80;;;11.32;;
76023;SDS011;64719;52.124;6.226;2023-08-30T07:37:39;14.82;;;10.07;;
76023;SDS011;64719;52.124;6.226;2023-08-30T07:40:06;18.67;;;11.63;;
76023;SDS011;64719;52.124;6.226;2023-08-30T07:42:33;17.30;;;11.05;;
76023;SDS011;64719;52.124;6.226;2023-08-30T07:45:01;19.02;;;10.93;;
76023;SDS011;64719;52.124;6.226;2023-08-30T07:47:29;19.27;;;12.27;;
76023;SDS011;64719;52.124;6.226;2023-08-30T07:49:56;17.95;;;10.95;;
76023;SDS011;64719;52.124;6.226;2023-08-30T07:52:23;18.60;;;11.48;;
76023;SDS011;64719;52.124;6.226;2023-08-30T07:54:49;18.08;;;11.52;;
76023;SDS011;64719;52.124;6.226;2023-08-30T07:57:16;19.58;;;11.32;;
76023;SDS011;64719;52.124;6.226;2023-08-30T07:59:42;19.52;;;11.52;;
76023;SDS011;64719;52.124;6.226;2023-08-30T08:02:10;20.50;;;11.32;;
76023;SDS011;64719;52.124;6.226;2023-08-30T08:04:37;19.90;;;11.70;;
76023;SDS011;64719;52.124;6.226;2023-08-30T08:07:04;20.08;;;11.70;;
76023;SDS011;64719;52.124;6.226;2023-08-30T08:09:32;18.52;;;11.65;;
76023;SDS011;64719;52.124;6.226;2023-08-30T08:11:58;21.95;;;12.45;;
76023;SDS011;64719;52.124;6.226;2023-08-30T08:14:25;21.58;;;12.65;;
76023;SDS011;64719;52.124;6.226;2023-08-30T08:16:52;19.73;;;11.52;;
76023;SDS011;64719;52.124;6.226;2023-08-30T08:19:21;19.17;;;12.23;;
76023;SDS011;64719;52.124;6.226;2023-08-30T08:21:48;18.08;;;11.73;;
76023;SDS011;64719;52.124;6.226;2023-08-30T08:24:15;17.50;;;11.15;;
76023;SDS011;64719;52.124;6.226;2023-08-30T08:26:43;21.00;;;11.65;;
76023;SDS011;64719;52.124;6.226;2023-08-30T08:29:09;23.05;;;11.63;;
76023;SDS011;64719;52.124;6.226;2023-08-30T08:31:36;17.60;;;10.63;;
76023;SDS011;64719;52.124;6.226;2023-08-30T08:34:06;21.80;;;12.70;;
76023;SDS011;64719;52.124;6.226;2023-08-30T08:36:36;25.45;;;13.80;;
76023;SDS011;64719;52.124;6.226;2023-08-30T08:39:02;25.67;;;13.07;;
76023;SDS011;64719;52.124;6.226;2023-08-30T08:41:32;23.77;;;12.77;;
76023;SDS011;64719;52.124;6.226;2023-08-30T08:44:04;20.73;;;11.40;;
76023;SDS011;64719;52.124;6.226;2023-08-30T08:46:31;21.30;;;11.63;;
76023;SDS011;64719;52.124;6.226;2023-08-30T08:48:58;19.23;;;12.15;;
76023;SDS011;64719;52.124;6.226;2023-08-30T08:51:30;23.08;;;12.75;;
76023;SDS011;64719;52.124;6.226;2023-08-30T08:54:02;25.42;;;12.82;;
76023;SDS011;64719;52.124;6.226;2023-08-30T08:56:30;24.60;;;13.63;;
76023;SDS011;64719;52.124;6.226;2023-08-30T08:58:57;20.65;;;12.43;;
76023;SDS011;64719;52.124;6.226;2023-08-30T09:01:24;22.45;;;12.50;;
76023;SDS011;64719;52.124;6.226;2023-08-30T09:03:52;20.17;;;12.77;;
76023;SDS011;64719;52.124;6.226;2023-08-30T09:06:19;18.63;;;11.10;;
76023;SDS011;64719;52.124;6.226;2023-08-30T09:08:47;19.13;;;11.63;;
76023;SDS011;64719;52.124;6.226;2023-08-30T09:11:15;22.35;;;12.23;;
76023;SDS011;64719;52.124;6.226;2023-08-30T09:13:42;22.02;;;11.52;;
76023;SDS011;64719;52.124;6.226;2023-08-30T09:16:12;22.05;;;12.38;;
76023;SDS011;64719;52.124;6.226;2023-08-30T09:18:39;17.38;;;10.90;;
76023;SDS011;64719;52.124;6.226;2023-08-30T09:21:06;18.42;;;11.77;;
76023;SDS011;64719;52.124;6.226;2023-08-30T09:23:33;20.13;;;12.10;;
76023;SDS011;64719;52.124;6.226;2023-08-30T09:26:01;17.58;;;10.95;;
76023;SDS011;64719;52.124;6.226;2023-08-30T09:28:30;18.58;;;11.15;;
76023;SDS011;64719;52.124;6.226;2023-08-30T09:30:58;19.70;;;11.50;;
76023;SDS011;64719;52.124;6.226;2023-08-30T09:33:29;19.27;;;11.38;;
76023;SDS011;64719;52.124;6.226;2023-08-30T09:35:57;22.15;;;13.18;;
76023;SDS011;64719;52.124;6.226;2023-08-30T09:38:24;20.88;;;11.82;;
76023;SDS011;64719;52.124;6.226;2023-08-30T09:40:51;20.63;;;11.77;;
76023;SDS011;64719;52.124;6.226;2023-08-30T09:43:19;24.33;;;13.10;;
76023;SDS011;64719;52.124;6.226;2023-08-30T09:45:50;23.77;;;13.52;;
76023;SDS011;64719;52.124;6.226;2023-08-30T09:48:20;24.67;;;13.73;;
76023;SDS011;64719;52.124;6.226;2023-08-30T09:50:47;25.10;;;15.15;;
76023;SDS011;64719;52.124;6.226;2023-08-30T09:53:20;28.80;;;14.77;;
76023;SDS011;64719;52.124;6.226;2023-08-30T09:55:49;23.35;;;13.23;;
76023;SDS011;64719;52.124;6.226;2023-08-30T09:58:18;24.15;;;13.38;;
76023;SDS011;64719;52.124;6.226;2023-08-30T10:00:47;28.77;;;13.98;;
76023;SDS011;64719;52.124;6.226;2023-08-30T10:03:16;24.55;;;13.85;;
76023;SDS011;64719;52.124;6.226;2023-08-30T10:05:44;22.50;;;13.30;;
76023;SDS011;64719;52.124;6.226;2023-08-30T10:08:13;21.70;;;12.30;;
76023;SDS011;64719;52.124;6.226;2023-08-30T10:10:41;23.75;;;14.05;;
76023;SDS011;64719;52.124;6.226;2023-08-30T10:13:07;24.15;;;12.40;;
76023;SDS011;64719;52.124;6.226;2023-08-30T10:15:37;24.58;;;12.38;;
76023;SDS011;64719;52.124;6.226;2023-08-30T10:18:11;20.15;;;12.30;;
76023;SDS011;64719;52.124;6.226;2023-08-30T10:20:41;23.27;;;12.50;;
76023;SDS011;64719;52.124;6.226;2023-08-30T10:23:08;19.73;;;11.95;;
76023;SDS011;64719;52.124;6.226;2023-08-30T10:25:36;19.52;;;11.02;;
76023;SDS011;64719;52.124;6.226;2023-08-30T10:28:04;16.67;;;10.18;;
76023;SDS011;64719;52.124;6.226;2023-08-30T10:30:32;15.07;;;9.35;;
76023;SDS011;64719;52.124;6.226;2023-08-30T10:32:58;14.77;;;9.43;;
76023;SDS011;64719;52.124;6.226;2023-08-30T10:35:26;16.25;;;9.95;;
76023;SDS011;64719;52.124;6.226;2023-08-30T10:37:53;16.58;;;10.02;;
76023;SDS011;64719;52.124;6.226;2023-08-30T10:40:21;16.80;;;9.93;;
76023;SDS011;64719;52.124;6.226;2023-08-30T10:42:58;15.20;;;9.82;;
76023;SDS011;64719;52.124;6.226;2023-08-30T10:45:26;14.10;;;8.57;;
76023;SDS011;64719;52.124;6.226;2023-08-30T10:47:54;13.50;;;8.63;;
76023;SDS011;64719;52.124;6.226;2023-08-30T10:50:28;12.13;;;8.52;;
76023;SDS011;64719;52.124;6.226;2023-08-30T10:52:56;14.68;;;8.77;;
76023;SDS011;64719;52.124;6.226;2023-08-30T10:55:23;11.23;;;7.50;;
76023;SDS011;64719;52.124;6.226;2023-08-30T10:57:57;12.32;;;7.97;;
76023;SDS011;64719;52.124;6.226;2023-08-30T11:00:27;11.40;;;7.95;;
76023;SDS011;64719;52.124;6.226;2023-08-30T11:02:55;11.75;;;8.07;;
76023;SDS011;64719;52.124;6.226;2023-08-30T11:05:23;9.93;;;7.15;;
76023;SDS011;64719;52.124;6.226;2023-08-30T11:07:52;10.63;;;7.82;;
76023;SDS011;64719;52.124;6.226;2023-08-30T11:10:19;8.57;;;7.00;;
76023;SDS011;64719;52.124;6.226;2023-08-30T11:12:47;8.65;;;6.60;;
76023;SDS011;64719;52.124;6.226;2023-08-30T11:17:41;7.03;;;5.68;;
76023;SDS011;64719;52.124;6.226;2023-08-30T11:20:10;10.00;;;6.85;;
76023;SDS011;64719;52.124;6.226;2023-08-30T11:22:39;8.43;;;6.30;;
76023;SDS011;64719;52.124;6.226;2023-08-30T11:25:09;8.65;;;6.35;;
76023;SDS011;64719;52.124;6.226;2023-08-30T11:27:36;7.85;;;6.15;;
76023;SDS011;64719;52.124;6.226;2023-08-30T11:30:03;9.15;;;6.88;;
76023;SDS011;64719;52.124;6.226;2023-08-30T11:32:32;7.85;;;6.22;;
76023;SDS011;64719;52.124;6.226;2023-08-30T11:34:59;7.00;;;5.35;;
76023;SDS011;64719;52.124;6.226;2023-08-30T11:37:26;5.90;;;5.30;;
76023;SDS011;64719;52.124;6.226;2023-08-30T11:39:54;6.28;;;5.68;;
76023;SDS011;64719;52.124;6.226;2023-08-30T11:42:23;7.07;;;5.60;;
76023;SDS011;64719;52.124;6.226;2023-08-30T11:44:50;6.63;;;5.72;;
76023;SDS011;64719;52.124;6.226;2023-08-30T11:47:18;6.28;;;5.55;;
76023;SDS011;64719;52.124;6.226;2023-08-30T11:49:46;7.20;;;6.50;;
76023;SDS011;64719;52.124;6.226;2023-08-30T11:52:13;7.03;;;6.15;;
76023;SDS011;64719;52.124;6.226;2023-08-30T11:54:40;7.82;;;6.30;;
76023;SDS011;64719;52.124;6.226;2023-08-30T11:57:08;7.78;;;6.88;;
76023;SDS011;64719;52.124;6.226;2023-08-30T11:59:36;8.05;;;6.90;;
76023;SDS011;64719;52.124;6.226;2023-08-30T12:02:03;9.88;;;7.97;;
76023;SDS011;64719;52.124;6.226;2023-08-30T12:04:31;9.70;;;7.10;;
76023;SDS011;64719;52.124;6.226;2023-08-30T12:06:57;8.73;;;6.32;;
76023;SDS011;64719;52.124;6.226;2023-08-30T12:09:29;8.32;;;6.10;;
76023;SDS011;64719;52.124;6.226;2023-08-30T12:12:04;7.15;;;4.85;;
76023;SDS011;64719;52.124;6.226;2023-08-30T12:14:34;4.78;;;4.00;;
76023;SDS011;64719;52.124;6.226;2023-08-30T12:17:03;4.82;;;3.70;;
76023;SDS011;64719;52.124;6.226;2023-08-30T12:19:31;4.78;;;3.88;;
76023;SDS011;64719;52.124;6.226;2023-08-30T12:22:02;7.25;;;4.50;;
76023;SDS011;64719;52.124;6.226;2023-08-30T12:24:39;6.38;;;4.15;;
76023;SDS011;64719;52.124;6.226;2023-08-30T12:27:07;6.22;;;4.30;;
76023;SDS011;64719;52.124;6.226;2023-08-30T12:29:34;5.80;;;4.35;;
76023;SDS011;64719;52.124;6.226;2023-08-30T12:32:02;4.28;;;3.88;;
76023;SDS011;64719;52.124;6.226;2023-08-30T12:34:29;6.85;;;4.35;;
76023;SDS011;64719;52.124;6.226;2023-08-30T12:36:56;5.50;;;3.90;;
76023;SDS011;64719;52.124;6.226;2023-08-30T12:39:23;6.90;;;4.13;;
76023;SDS011;64719;52.124;6.226;2023-08-30T12:41:50;6.13;;;3.35;;
76023;SDS011;64719;52.124;6.226;2023-08-30T12:44:17;5.80;;;3.60;;
76023;SDS011;64719;52.124;6.226;2023-08-30T12:46:43;6.45;;;2.92;;
76023;SDS011;64719;52.124;6.226;2023-08-30T12:49:11;5.88;;;2.95;;
76023;SDS011;64719;52.124;6.226;2023-08-30T12:51:38;4.30;;;2.50;;
76023;SDS011;64719;52.124;6.226;2023-08-30T12:54:05;4.70;;;2.17;;
76023;SDS011;64719;52.124;6.226;2023-08-30T12:56:31;7.70;;;2.33;;
76023;SDS011;64719;52.124;6.226;2023-08-30T12:58:58;5.63;;;2.05;;
76023;SDS011;64719;52.124;6.226;2023-08-30T13:01:24;5.32;;;2.00;;
76023;SDS011;64719;52.124;6.226;2023-08-30T13:03:51;5.03;;;2.15;;
76023;SDS011;64719;52.124;6.226;2023-08-30T13:06:19;6.38;;;2.00;;
76023;SDS011;64719;52.124;6.226;2023-08-30T13:08:45;5.43;;;1.92;;
76023;SDS011;64719;52.124;6.226;2023-08-30T13:11:12;6.75;;;2.38;;
76023;SDS011;64719;52.124;6.226;2023-08-30T13:13:39;6.57;;;2.45;;
76023;SDS011;64719;52.124;6.226;2023-08-30T13:16:05;7.72;;;2.33;;
76023;SDS011;64719;52.124;6.226;2023-08-30T13:18:32;6.53;;;2.75;;
76023;SDS011;64719;52.124;6.226;2023-08-30T13:20:58;4.97;;;2.22;;
76023;SDS011;64719;52.124;6.226;2023-08-30T13:23:26;5.93;;;2.60;;
76023;SDS011;64719;52.124;6.226;2023-08-30T13:25:53;6.47;;;2.40;;
76023;SDS011;64719;52.124;6.226;2023-08-30T13:28:19;6.95;;;2.40;;
76023;SDS011;64719;52.124;6.226;2023-08-30T13:30:46;5.88;;;2.65;;
76023;SDS011;64719;52.124;6.226;2023-08-30T13:33:15;5.60;;;2.35;;
76023;SDS011;64719;52.124;6.226;2023-08-30T13:35:41;8.32;;;2.75;;
76023;SDS011;64719;52.124;6.226;2023-08-30T13:38:08;6.95;;;2.20;;
76023;SDS011;64719;52.124;6.226;2023-08-30T13:40:36;5.07;;;2.30;;
76023;SDS011;64719;52.124;6.226;2023-08-30T13:43:02;6.70;;;2.63;;
76023;SDS011;64719;52.124;6.226;2023-08-30T13:45:29;5.65;;;2.30;;
76023;SDS011;64719;52.124;6.226;2023-08-30T13:47:56;6.05;;;2.20;;
76023;SDS011;64719;52.124;6.226;2023-08-30T13:50:22;5.43;;;2.50;;
76023;SDS011;64719;52.124;6.226;2023-08-30T13:52:49;4.75;;;1.88;;
76023;SDS011;64719;52.124;6.226;2023-08-30T13:55:16;4.88;;;2.17;;
76023;SDS011;64719;52.124;6.226;2023-08-30T13:57:44;5.82;;;2.47;;
76023;SDS011;64719;52.124;6.226;2023-08-30T14:00:11;7.03;;;2.28;;
76023;SDS011;64719;52.124;6.226;2023-08-30T14:02:39;5.25;;;2.15;;
76023;SDS011;64719;52.124;6.226;2023-08-30T14:05:06;6.85;;;2.10;;
76023;SDS011;64719;52.124;6.226;2023-08-30T14:07:33;3.38;;;1.85;;
76023;SDS011;64719;52.124;6.226;2023-08-30T14:10:00;5.93;;;2.05;;
76023;SDS011;64719;52.124;6.226;2023-08-30T14:12:27;4.88;;;2.00;;
76023;SDS011;64719;52.124;6.226;2023-08-30T14:14:54;7.28;;;2.58;;
76023;SDS011;64719;52.124;6.226;2023-08-30T14:17:21;4.47;;;2.00;;
76023;SDS011;64719;52.124;6.226;2023-08-30T14:19:48;5.53;;;1.83;;
76023;SDS011;64719;52.124;6.226;2023-08-30T14:22:14;7.15;;;2.03;;
76023;SDS011;64719;52.124;6.226;2023-08-30T14:24:41;7.07;;;2.40;;
76023;SDS011;64719;52.124;6.226;2023-08-30T14:27:07;6.15;;;2.17;;
76023;SDS011;64719;52.124;6.226;2023-08-30T14:29:34;6.70;;;2.30;;
76023;SDS011;64719;52.124;6.226;2023-08-30T14:32:02;7.30;;;2.33;;
76023;SDS011;64719;52.124;6.226;2023-08-30T14:34:29;7.45;;;2.25;;
76023;SDS011;64719;52.124;6.226;2023-08-30T14:36:56;5.03;;;2.00;;
76023;SDS011;64719;52.124;6.226;2023-08-30T14:39:22;5.50;;;2.13;;
76023;SDS011;64719;52.124;6.226;2023-08-30T14:41:49;8.13;;;2.35;;
76023;SDS011;64719;52.124;6.226;2023-08-30T14:44:15;6.20;;;2.00;;
76023;SDS011;64719;52.124;6.226;2023-08-30T14:46:42;5.55;;;1.70;;
76023;SDS011;64719;52.124;6.226;2023-08-30T14:49:10;6.97;;;1.90;;
76023;SDS011;64719;52.124;6.226;2023-08-30T14:51:37;5.18;;;1.45;;